Matsumoto Airport
RJAF : now visible

Airfield :











YOU CAN JOIN US ON...

 
LOGIN :

Register | Disclaimer

   EN    FR    IT 

 









Legend :    VFR   Marginal VFR   IFR   Intensive IFR   Very Intensive IFR
Visi :
Ceiling :
>= 8 km
>= 3000ft
5 to 8 km
1000 to 3000 ft
1500m to 5 km
500 to 1000 ft
800 to 1500m
200 to 500 ft
< 800m
< 200 ft
Symbols :   Thunderstorms  Fog  Heavy snow  Heavy precipitations  Wind > 20 kt






- Airport Elevation : 2182 ft
- IATA code : MMJ


RJAF - Matsumoto

CURRENT METAR :
  • 190600Z 32007KT 270V010 9999 FEW060 SCT/// 27/11 Q1011

EXPIRED METARs :
  • 190500Z 35006KT 310V060 9999 FEW060 SCT/// 27/13 Q1011
  • 190400Z 36005KT 300V070 9999 FEW050 26/14 Q1011
  • 190300Z VRB05KT 9999 FEW045 24/12 Q1012
  • 190200Z VRB03KT 9999 FEW030 23/15 Q1012

TAF N/A
RJJJ FIR / Asia



MET'MAP, your aeronautical weather chart ! - Copyright ORBIFLY December 2007 - Disclaimer

ORBIFLY MET'MAP TEAM :

Programming & Development : Alexandra Zaïnal
Original concept : Baudouin d'Aumeries
Technical & hardware support : Manuel Goepfert
Assistance : Marc-Olivier Méhu




SOURCES & CREDITS :

   NOAA       Earth
Advisory